Time;durP1;ratioP1;P1;durP2;ratioP2;P2;SDS_P1;SDS_P2;PMS_P1;PMS_P2;Temp;Humidity;BMP_temperature;BMP_pressure;BME280_temperature;BME280_humidity;BME280_pressure;Samples;Min_cycle;Max_cycle;Signal;HPM_P1;HPM_P2
2023/12/19 00:00:16;;;;;;;1999.90;999.90;;;;;;;;;;5088809;28;20079;-89
2023/12/19 00:02:43;;;;;;;1999.90;999.90;;;;;;;;;;5090983;28;20405;-89
2023/12/19 00:05:09;;;;;;;1999.90;999.90;;;;;;;;;;5090729;28;20070;-88
2023/12/19 00:07:38;;;;;;;1999.90;999.90;;;;;;;;;;5090182;28;20043;-89
2023/12/19 00:10:05;;;;;;;1999.90;999.90;;;;;;;;;;5087920;28;20084;-88
2023/12/19 00:12:32;;;;;;;1999.90;999.90;;;;;;;;;;5088505;28;20437;-90
2023/12/19 00:14:58;;;;;;;1999.90;999.90;;;;;;;;;;5089775;28;20056;-89
2023/12/19 00:17:25;;;;;;;1999.90;999.90;;;;;;;;;;5090245;28;20048;-89
2023/12/19 00:19:52;;;;;;;1999.90;999.90;;;;;;;;;;5088363;28;20051;-88
2023/12/19 00:22:18;;;;;;;1999.90;999.90;;;;;;;;;;5090011;28;20133;-89
2023/12/19 00:24:46;;;;;;;1999.90;999.90;;;;;;;;;;5087660;28;20066;-88
2023/12/19 00:27:12;;;;;;;1999.90;999.90;;;;;;;;;;5088060;28;20493;-89
2023/12/19 00:29:39;;;;;;;1999.90;999.90;;;;;;;;;;5088040;28;20055;-88
2023/12/19 00:32:06;;;;;;;1999.90;999.90;;;;;;;;;;5091154;28;20051;-89
2023/12/19 00:34:32;;;;;;;1999.90;999.90;;;;;;;;;;5088069;28;20064;-89
2023/12/19 00:36:59;;;;;;;1999.90;999.90;;;;;;;;;;5088553;28;20052;-90
2023/12/19 00:39:25;;;;;;;1999.90;999.90;;;;;;;;;;5089071;28;20051;-88
2023/12/19 00:41:53;;;;;;;1999.90;999.90;;;;;;;;;;5087828;28;20054;-90
2023/12/19 00:44:20;;;;;;;1999.90;999.90;;;;;;;;;;5088451;28;20058;-88
2023/12/19 00:46:46;;;;;;;1999.90;999.90;;;;;;;;;;5087113;28;20063;-89
2023/12/19 00:49:13;;;;;;;1999.90;999.90;;;;;;;;;;5088548;28;20072;-89
2023/12/19 00:51:39;;;;;;;1999.90;999.90;;;;;;;;;;5088431;28;20409;-88
2023/12/19 00:54:06;;;;;;;1999.90;999.90;;;;;;;;;;5087130;28;20059;-89
2023/12/19 00:56:33;;;;;;;1999.90;999.90;;;;;;;;;;5090327;28;20040;-90
2023/12/19 00:59:01;;;;;;;1999.90;999.90;;;;;;;;;;5088473;28;20054;-89
2023/12/19 01:01:27;;;;;;;1999.90;999.90;;;;;;;;;;5090250;28;20052;-88
2023/12/19 01:03:54;;;;;;;1999.90;999.90;;;;;;;;;;5087833;28;20044;-90
2023/12/19 01:06:21;;;;;;;1999.90;999.90;;;;;;;;;;5088630;28;20047;-90
2023/12/19 01:08:47;;;;;;;1999.90;999.90;;;;;;;;;;5090052;28;20051;-90
2023/12/19 01:11:14;;;;;;;1999.90;999.90;;;;;;;;;;5087495;28;20139;-89
2023/12/19 01:13:40;;;;;;;1999.90;999.90;;;;;;;;;;5087337;28;20044;-89
2023/12/19 01:16:09;;;;;;;1999.90;999.90;;;;;;;;;;5087674;28;20059;-89
2023/12/19 01:18:35;;;;;;;1999.90;999.90;;;;;;;;;;5090616;28;20085;-89
2023/12/19 01:21:02;;;;;;;1999.90;999.90;;;;;;;;;;5087999;28;20090;-89
2023/12/19 01:23:28;;;;;;;1999.90;999.90;;;;;;;;;;5087559;28;20059;-90
2023/12/19 01:25:55;;;;;;;1999.90;999.90;;;;;;;;;;5089401;28;20047;-90
2023/12/19 01:28:21;;;;;;;1999.90;999.90;;;;;;;;;;5086724;28;20505;-89
2023/12/19 01:30:48;;;;;;;1999.90;999.90;;;;;;;;;;5089653;28;20040;-89
2023/12/19 01:33:16;;;;;;;1999.90;999.90;;;;;;;;;;5089566;28;20070;-89
2023/12/19 01:35:42;;;;;;;1999.90;999.90;;;;;;;;;;5088766;28;20052;-90
2023/12/19 01:38:10;;;;;;;1999.90;999.90;;;;;;;;;;5087682;28;20391;-90
2023/12/19 01:40:36;;;;;;;1999.90;999.90;;;;;;;;;;5088290;28;20536;-89
2023/12/19 01:43:03;;;;;;;1999.90;999.90;;;;;;;;;;5090281;28;20046;-90
2023/12/19 01:45:30;;;;;;;1999.90;999.90;;;;;;;;;;5091468;28;20052;-90
2023/12/19 01:47:57;;;;;;;1999.90;999.90;;;;;;;;;;5092491;28;20054;-89
2023/12/19 01:50:25;;;;;;;1999.90;999.90;;;;;;;;;;5089864;28;20256;-89
2023/12/19 01:52:54;;;;;;;1999.90;999.90;;;;;;;;;;5091331;28;20078;-88
2023/12/19 01:55:21;;;;;;;1999.90;999.90;;;;;;;;;;5092015;28;20500;-89
2023/12/19 01:57:48;;;;;;;1999.90;999.90;;;;;;;;;;5092719;28;20062;-90
2023/12/19 02:00:15;;;;;;;1999.90;999.90;;;;;;;;;;5088259;28;20040;-89
2023/12/19 02:02:42;;;;;;;1999.90;999.90;;;;;;;;;;5090702;28;20060;-90
2023/12/19 02:05:09;;;;;;;1999.90;999.90;;;;;;;;;;5095434;28;20047;-91
2023/12/19 02:07:37;;;;;;;1999.90;999.90;;;;;;;;;;5091143;28;20048;-88
2023/12/19 02:10:04;;;;;;;1999.90;999.90;;;;;;;;;;5091118;28;20055;-89
2023/12/19 02:12:30;;;;;;;1999.90;999.90;;;;;;;;;;5090463;28;20413;-90
2023/12/19 02:38:53;;;;;;;1999.90;999.90;;;;;;;;;;5002264;28;20578;-89
2023/12/19 02:41:20;;;;;;;1999.90;999.90;;;;;;;;;;5006118;28;20064;-88
2023/12/19 02:43:46;;;;;;;1999.90;999.90;;;;;;;;;;5006457;28;20050;-89
2023/12/19 02:46:13;;;;;;;1999.90;999.90;;;;;;;;;;5000051;28;20054;-89
2023/12/19 02:48:39;;;;;;;1999.90;999.90;;;;;;;;;;5002315;28;20046;-89
2023/12/19 02:51:06;;;;;;;1999.90;999.90;;;;;;;;;;5004400;28;20487;-89
2023/12/19 02:53:33;;;;;;;1999.90;999.90;;;;;;;;;;5005360;28;20051;-90
2023/12/19 02:56:01;;;;;;;1999.90;999.90;;;;;;;;;;5000676;28;20062;-90
2023/12/19 02:58:28;;;;;;;1999.90;999.90;;;;;;;;;;5003399;28;20062;-90
2023/12/19 03:00:54;;;;;;;1999.90;999.90;;;;;;;;;;5001056;28;20050;-89
2023/12/19 03:03:21;;;;;;;1999.90;999.90;;;;;;;;;;4999942;28;20042;-90
2023/12/19 03:05:47;;;;;;;1999.90;999.90;;;;;;;;;;5003645;28;20046;-90
2023/12/19 03:08:14;;;;;;;1999.90;999.90;;;;;;;;;;5004095;28;20050;-90
2023/12/19 03:10:40;;;;;;;1999.90;999.90;;;;;;;;;;5004368;28;20050;-90
2023/12/19 03:13:08;;;;;;;1999.90;999.90;;;;;;;;;;5008222;28;20050;-89
2023/12/19 03:15:36;;;;;;;1999.90;999.90;;;;;;;;;;5007808;28;20054;-90
2023/12/19 03:18:02;;;;;;;1999.90;999.90;;;;;;;;;;5019129;28;20067;-90
2023/12/19 03:20:29;;;;;;;1999.90;999.90;;;;;;;;;;5014969;28;20046;-90
2023/12/19 03:22:55;;;;;;;1999.90;999.90;;;;;;;;;;5013557;28;20049;-90
2023/12/19 03:25:22;;;;;;;1999.90;999.90;;;;;;;;;;5006615;28;20488;-90
2023/12/19 03:27:48;;;;;;;1999.90;999.90;;;;;;;;;;5001174;28;20047;-90
2023/12/19 03:30:16;;;;;;;1999.90;999.90;;;;;;;;;;5002994;28;20050;-90
2023/12/19 03:32:43;;;;;;;1999.90;999.90;;;;;;;;;;5002766;28;20046;-90
2023/12/19 03:35:10;;;;;;;1999.90;999.90;;;;;;;;;;5003229;28;20053;-90
2023/12/19 03:37:37;;;;;;;1999.90;999.90;;;;;;;;;;5005853;28;20495;-91
2023/12/19 03:40:04;;;;;;;1999.90;999.90;;;;;;;;;;5007298;28;20643;-90
2023/12/19 03:42:31;;;;;;;1999.90;999.90;;;;;;;;;;5005667;28;20053;-90
2023/12/19 03:44:57;;;;;;;1999.90;999.90;;;;;;;;;;5007066;28;20062;-90
2023/12/19 03:47:25;;;;;;;1999.90;999.90;;;;;;;;;;5009303;28;20050;-89
2023/12/19 03:49:52;;;;;;;1999.90;999.90;;;;;;;;;;5005555;28;20422;-90
2023/12/19 03:52:18;;;;;;;1999.90;999.90;;;;;;;;;;5005259;28;20132;-90
2023/12/19 03:54:45;;;;;;;1999.90;999.90;;;;;;;;;;5001708;28;20136;-90
2023/12/19 03:57:11;;;;;;;1999.90;999.90;;;;;;;;;;5002536;28;20057;-90
2023/12/19 03:59:38;;;;;;;1999.90;999.90;;;;;;;;;;4999875;28;20054;-89
2023/12/19 04:02:04;;;;;;;1999.90;999.90;;;;;;;;;;4999206;28;20046;-90
2023/12/19 04:04:32;;;;;;;1999.90;999.90;;;;;;;;;;5002518;28;20054;-90
2023/12/19 04:06:59;;;;;;;1999.90;999.90;;;;;;;;;;5001725;28;20064;-91
2023/12/19 04:09:25;;;;;;;1999.90;999.90;;;;;;;;;;5001291;28;20101;-90
2023/12/19 04:11:52;;;;;;;1999.90;999.90;;;;;;;;;;5004873;28;20056;-89
2023/12/19 04:14:18;;;;;;;1999.90;999.90;;;;;;;;;;5004615;28;20515;-90
2023/12/19 04:16:45;;;;;;;1999.90;999.90;;;;;;;;;;5007098;28;20046;-90
2023/12/19 04:19:12;;;;;;;1999.90;999.90;;;;;;;;;;5009578;28;20046;-90
2023/12/19 04:21:40;;;;;;;1999.90;999.90;;;;;;;;;;5001114;28;20056;-90
2023/12/19 04:24:07;;;;;;;1999.90;999.90;;;;;;;;;;5000460;28;20049;-91
2023/12/19 04:26:34;;;;;;;1999.90;999.90;;;;;;;;;;5001975;28;20038;-91
2023/12/19 04:29:00;;;;;;;1999.90;999.90;;;;;;;;;;4999423;28;20295;-90
2023/12/19 04:31:27;;;;;;;1999.90;999.90;;;;;;;;;;4999662;28;20061;-90
2023/12/19 04:33:53;;;;;;;1999.90;999.90;;;;;;;;;;4998370;28;20476;-89
2023/12/19 04:36:20;;;;;;;1999.90;999.90;;;;;;;;;;5000086;28;20054;-90
2023/12/19 04:38:48;;;;;;;1999.90;999.90;;;;;;;;;;5002250;28;20050;-89
2023/12/19 04:41:14;;;;;;;1999.90;999.90;;;;;;;;;;5001848;28;20060;-89
2023/12/19 04:43:41;;;;;;;1999.90;999.90;;;;;;;;;;5003631;28;20050;-90
2023/12/19 04:46:08;;;;;;;1999.90;999.90;;;;;;;;;;5001244;28;20054;-90
2023/12/19 04:48:35;;;;;;;1999.90;999.90;;;;;;;;;;5000208;28;20050;-89
2023/12/19 04:51:02;;;;;;;1999.90;999.90;;;;;;;;;;5000619;28;20061;-89
2023/12/19 04:53:29;;;;;;;1999.90;999.90;;;;;;;;;;5001831;28;20058;-91
2023/12/19 04:55:56;;;;;;;1999.90;999.90;;;;;;;;;;5002119;28;20046;-90
2023/12/19 04:58:23;;;;;;;1999.90;999.90;;;;;;;;;;5003369;28;20050;-90
2023/12/19 05:00:51;;;;;;;1999.90;999.90;;;;;;;;;;5002354;28;20073;-90
2023/12/19 05:03:18;;;;;;;1999.90;999.90;;;;;;;;;;5004475;28;20058;-89
2023/12/19 05:05:44;;;;;;;1999.90;999.90;;;;;;;;;;5007065;28;20426;-90
2023/12/19 05:08:16;;;;;;;1999.90;999.90;;;;;;;;;;5007094;28;20052;-90
2023/12/19 05:10:43;;;;;;;1999.90;999.90;;;;;;;;;;5001548;28;20056;-90
2023/12/19 05:13:11;;;;;;;1999.90;999.90;;;;;;;;;;5003120;28;20054;-89
2023/12/19 05:15:38;;;;;;;1999.90;999.90;;;;;;;;;;5003170;28;20427;-90
2023/12/19 05:18:04;;;;;;;1999.90;999.90;;;;;;;;;;5005519;28;20058;-90
2023/12/19 05:20:31;;;;;;;1999.90;999.90;;;;;;;;;;5008116;28;20050;-89
2023/12/19 05:22:57;;;;;;;1999.90;999.90;;;;;;;;;;5002067;28;20435;-89
2023/12/19 05:25:24;;;;;;;1999.90;999.90;;;;;;;;;;5006378;28;20053;-90
2023/12/19 05:27:51;;;;;;;1999.90;999.90;;;;;;;;;;5003444;28;20133;-90
2023/12/19 05:30:19;;;;;;;1999.90;999.90;;;;;;;;;;5005427;28;20066;-90
2023/12/19 05:32:45;;;;;;;1999.90;999.90;;;;;;;;;;5004657;28;20045;-90
2023/12/19 05:35:12;;;;;;;1999.90;999.90;;;;;;;;;;5007754;28;20056;-90
2023/12/19 05:37:38;;;;;;;1999.90;999.90;;;;;;;;;;5009179;28;20046;-90
2023/12/19 05:40:07;;;;;;;1999.90;999.90;;;;;;;;;;5009003;28;20049;-90
2023/12/19 05:42:33;;;;;;;1999.90;999.90;;;;;;;;;;5011963;28;20053;-90
2023/12/19 05:45:00;;;;;;;1999.90;999.90;;;;;;;;;;5013926;28;20052;-90
2023/12/19 05:47:28;;;;;;;1999.90;999.90;;;;;;;;;;5015667;28;20319;-91
2023/12/19 05:49:55;;;;;;;1999.90;999.90;;;;;;;;;;5009247;28;20038;-90
2023/12/19 05:52:21;;;;;;;1999.90;999.90;;;;;;;;;;5015974;28;20085;-90
2023/12/19 05:54:48;;;;;;;1999.90;999.90;;;;;;;;;;5012781;28;20049;-90
2023/12/19 05:57:15;;;;;;;1999.90;999.90;;;;;;;;;;5018202;28;20113;-89
2023/12/19 05:59:41;;;;;;;1999.90;999.90;;;;;;;;;;5015656;28;20110;-90
2023/12/19 06:02:08;;;;;;;1999.90;999.90;;;;;;;;;;5022353;28;20137;-90
2023/12/19 06:04:36;;;;;;;1999.90;999.90;;;;;;;;;;5017636;28;20058;-89
2023/12/19 06:07:03;;;;;;;1999.90;999.90;;;;;;;;;;5014158;28;20065;-90
2023/12/19 06:09:31;;;;;;;1999.90;999.90;;;;;;;;;;5009694;28;20438;-91
2023/12/19 06:11:57;;;;;;;1999.90;999.90;;;;;;;;;;5013849;28;20058;-90
2023/12/19 06:14:24;;;;;;;1999.90;999.90;;;;;;;;;;5019990;28;20278;-90
2023/12/19 06:16:51;;;;;;;1999.90;999.90;;;;;;;;;;5013703;28;20042;-90
2023/12/19 06:19:17;;;;;;;1999.90;999.90;;;;;;;;;;5010532;28;20134;-91
2023/12/19 06:21:45;;;;;;;1999.90;999.90;;;;;;;;;;5012804;28;20462;-91
2023/12/19 06:24:12;;;;;;;1999.90;999.90;;;;;;;;;;5004165;28;20426;-90
2023/12/19 06:26:38;;;;;;;1999.90;999.90;;;;;;;;;;5001692;28;20045;-90
2023/12/19 06:29:05;;;;;;;1999.90;999.90;;;;;;;;;;5003490;28;20046;-91
2023/12/19 06:31:31;;;;;;;1999.90;999.90;;;;;;;;;;5005710;28;20050;-91
2023/12/19 06:33:58;;;;;;;1999.90;999.90;;;;;;;;;;5002329;28;20062;-90
2023/12/19 06:36:29;;;;;;;1999.90;999.90;;;;;;;;;;5002507;28;20054;-91
2023/12/19 06:38:57;;;;;;;1999.90;999.90;;;;;;;;;;5005997;28;20057;-90
2023/12/19 06:41:23;;;;;;;1999.90;999.90;;;;;;;;;;5004433;28;20393;-91
2023/12/19 06:43:50;;;;;;;1999.90;999.90;;;;;;;;;;5001900;28;20061;-90
2023/12/19 06:46:17;;;;;;;1999.90;999.90;;;;;;;;;;5001361;28;20056;-90
2023/12/19 06:48:43;;;;;;;1999.90;999.90;;;;;;;;;;5001083;28;20053;-91
2023/12/19 06:51:10;;;;;;;1999.90;999.90;;;;;;;;;;5002202;28;20510;-89
2023/12/19 06:53:36;;;;;;;1999.90;999.90;;;;;;;;;;5003085;28;20054;-91
2023/12/19 06:56:05;;;;;;;1999.90;999.90;;;;;;;;;;5002702;28;20058;-90
2023/12/19 06:58:32;;;;;;;1999.90;999.90;;;;;;;;;;5003609;28;20056;-91
2023/12/19 07:00:59;;;;;;;1999.90;999.90;;;;;;;;;;5004653;28;20053;-90
2023/12/19 07:03:25;;;;;;;1999.90;999.90;;;;;;;;;;5001478;28;20058;-91
2023/12/19 07:05:53;;;;;;;1999.90;999.90;;;;;;;;;;5003772;28;20046;-90
2023/12/19 07:08:19;;;;;;;1999.90;999.90;;;;;;;;;;5008082;28;20054;-91
2023/12/19 07:10:46;;;;;;;1999.90;999.90;;;;;;;;;;5004327;28;20050;-90
2023/12/19 07:13:14;;;;;;;1999.90;999.90;;;;;;;;;;5004718;28;20052;-91
2023/12/19 07:15:40;;;;;;;1999.90;999.90;;;;;;;;;;5006714;28;20510;-91
2023/12/19 07:18:07;;;;;;;1999.90;999.90;;;;;;;;;;5008269;28;20628;-90
2023/12/19 07:20:34;;;;;;;1999.90;999.90;;;;;;;;;;5000937;28;20048;-91
2023/12/19 07:23:00;;;;;;;1999.90;999.90;;;;;;;;;;5006946;28;20057;-91
2023/12/19 07:25:27;;;;;;;1999.90;999.90;;;;;;;;;;5002760;28;20129;-91
2023/12/19 07:27:53;;;;;;;1999.90;999.90;;;;;;;;;;4999425;28;20105;-91
2023/12/19 07:30:21;;;;;;;1999.90;999.90;;;;;;;;;;5003252;28;20042;-91
2023/12/19 07:32:49;;;;;;;1999.90;999.90;;;;;;;;;;5001047;28;20065;-90
2023/12/19 07:35:19;;;;;;;1999.90;999.90;;;;;;;;;;5005313;28;20065;-89
2023/12/19 07:37:45;;;;;;;1999.90;999.90;;;;;;;;;;4998599;28;20090;-89
2023/12/19 07:40:13;;;;;;;1999.90;999.90;;;;;;;;;;5000474;28;20056;-90
2023/12/19 07:42:41;;;;;;;1999.90;999.90;;;;;;;;;;5002402;28;20298;-89
2023/12/19 07:45:08;;;;;;;1999.90;999.90;;;;;;;;;;5006371;28;20054;-90
2023/12/19 07:47:36;;;;;;;1999.90;999.90;;;;;;;;;;5013212;28;20318;-89
2023/12/19 07:50:03;;;;;;;1999.90;999.90;;;;;;;;;;5015440;28;20046;-87
2023/12/19 07:52:30;;;;;;;1999.90;999.90;;;;;;;;;;5015442;28;20109;-90
2023/12/19 07:54:56;;;;;;;1999.90;999.90;;;;;;;;;;5014568;28;20052;-90
2023/12/19 07:57:23;;;;;;;1999.90;999.90;;;;;;;;;;5019301;28;20065;-92
2023/12/19 07:59:49;;;;;;;1999.90;999.90;;;;;;;;;;5015388;28;20109;-90
2023/12/19 08:02:17;;;;;;;1999.90;999.90;;;;;;;;;;5013486;28;20136;-91
2023/12/19 08:04:45;;;;;;;1999.90;999.90;;;;;;;;;;5020352;28;20053;-91
2023/12/19 08:07:11;;;;;;;1999.90;999.90;;;;;;;;;;5021833;28;20141;-90
2023/12/19 08:09:38;;;;;;;1999.90;999.90;;;;;;;;;;5010014;28;20603;-90
2023/12/19 08:12:05;;;;;;;1999.90;999.90;;;;;;;;;;5013516;28;20046;-90
2023/12/19 08:14:32;;;;;;;1999.90;999.90;;;;;;;;;;5015084;28;20050;-90
2023/12/19 08:16:58;;;;;;;1999.90;999.90;;;;;;;;;;5012597;28;20050;-90
2023/12/19 08:19:26;;;;;;;1999.90;999.90;;;;;;;;;;5020207;28;20052;-91
2023/12/19 08:21:56;;;;;;;1999.90;999.90;;;;;;;;;;5012073;28;20065;-90
2023/12/19 08:24:22;;;;;;;1999.90;999.90;;;;;;;;;;5006545;28;20085;-91
2023/12/19 08:26:49;;;;;;;1999.90;999.90;;;;;;;;;;5004255;28;20096;-92
2023/12/19 08:29:16;;;;;;;1999.90;999.90;;;;;;;;;;5006197;28;20054;-91
2023/12/19 08:31:45;;;;;;;1999.90;999.90;;;;;;;;;;5012611;28;20046;-91
2023/12/19 08:34:11;;;;;;;1999.90;999.90;;;;;;;;;;5008238;28;20053;-91
2023/12/19 08:36:38;;;;;;;1999.90;999.90;;;;;;;;;;5015956;28;20109;-91
2023/12/19 08:39:07;;;;;;;1999.90;999.90;;;;;;;;;;5000886;28;20060;-92
2023/12/19 08:41:34;;;;;;;1999.90;999.90;;;;;;;;;;4999911;28;20061;-91
2023/12/19 08:44:02;;;;;;;1999.90;999.90;;;;;;;;;;5007184;28;20088;-92
2023/12/19 08:46:28;;;;;;;1999.90;999.90;;;;;;;;;;5007897;28;20058;-91
2023/12/19 08:48:55;;;;;;;1999.90;999.90;;;;;;;;;;5006746;28;20050;-92
2023/12/19 08:51:21;;;;;;;1999.90;999.90;;;;;;;;;;5015772;28;20511;-93
2023/12/19 08:53:48;;;;;;;1999.90;999.90;;;;;;;;;;5022644;28;20053;-93
2023/12/19 08:56:17;;;;;;;1999.90;999.90;;;;;;;;;;5015933;28;20135;-94
2023/12/19 08:58:44;;;;;;;1999.90;999.90;;;;;;;;;;5020258;28;20046;-94
2023/12/19 09:01:11;;;;;;;1999.90;999.90;;;;;;;;;;5021119;28;20029;-94
2023/12/19 09:03:40;;;;;;;1999.90;999.90;;;;;;;;;;5014180;28;20137;-93
2023/12/19 09:06:08;;;;;;;1999.90;999.90;;;;;;;;;;5007887;28;20416;-94
2023/12/19 09:08:34;;;;;;;1999.90;999.90;;;;;;;;;;5009669;28;20050;-94
2023/12/19 09:11:01;;;;;;;1999.90;999.90;;;;;;;;;;5012577;28;20044;-94
2023/12/19 09:13:30;;;;;;;1999.90;999.90;;;;;;;;;;5017000;28;20054;-95
2023/12/19 09:16:00;;;;;;;1999.90;999.90;;;;;;;;;;5016293;28;20050;-95
2023/12/19 09:18:27;;;;;;;1999.90;999.90;;;;;;;;;;5017299;28;20049;-94
2023/12/19 09:20:53;;;;;;;1999.90;999.90;;;;;;;;;;5004333;28;20049;-96
2023/12/19 09:23:20;;;;;;;1999.90;999.90;;;;;;;;;;5005959;28;20128;-94
2023/12/19 09:25:47;;;;;;;1999.90;999.90;;;;;;;;;;5007434;28;20129;-91
2023/12/19 09:28:14;;;;;;;1999.90;999.90;;;;;;;;;;5006182;28;20054;-94
2023/12/19 09:30:42;;;;;;;1999.90;999.90;;;;;;;;;;5002882;28;20037;-93
2023/12/19 09:33:08;;;;;;;1999.90;999.90;;;;;;;;;;4999697;28;20149;-92
2023/12/19 09:35:35;;;;;;;1999.90;999.90;;;;;;;;;;5011060;28;20045;-94
2023/12/19 09:38:02;;;;;;;1999.90;999.90;;;;;;;;;;5009162;28;20058;-92
2023/12/19 09:40:29;;;;;;;1999.90;999.90;;;;;;;;;;5001062;28;20504;-92
2023/12/19 09:42:56;;;;;;;1999.90;999.90;;;;;;;;;;5004223;28;20133;-93
2023/12/19 09:45:23;;;;;;;1999.90;999.90;;;;;;;;;;5008285;28;20060;-95
2023/12/19 09:48:00;;;;;;;1999.90;999.90;;;;;;;;;;4998976;28;20050;-93
2023/12/19 09:50:27;;;;;;;1999.90;999.90;;;;;;;;;;5002831;28;20053;-91
2023/12/19 09:52:55;;;;;;;1999.90;999.90;;;;;;;;;;5001544;28;20048;-92
2023/12/19 09:55:21;;;;;;;1999.90;999.90;;;;;;;;;;5001561;28;20050;-93
2023/12/19 09:57:49;;;;;;;1999.90;999.90;;;;;;;;;;4999958;28;20069;-92
2023/12/19 10:00:18;;;;;;;1999.90;999.90;;;;;;;;;;5005679;28;20496;-91
2023/12/19 10:02:44;;;;;;;1999.90;999.90;;;;;;;;;;5006494;28;20054;-91
2023/12/19 10:05:12;;;;;;;1999.90;999.90;;;;;;;;;;5008766;28;20108;-90
2023/12/19 10:07:39;;;;;;;1999.90;999.90;;;;;;;;;;5006812;28;20056;-90
2023/12/19 10:10:07;;;;;;;1999.90;999.90;;;;;;;;;;5001237;28;20046;-90
2023/12/19 10:12:34;;;;;;;1999.90;999.90;;;;;;;;;;5003384;28;20089;-91
2023/12/19 10:15:12;;;;;;;1999.90;999.90;;;;;;;;;;5004496;28;20060;-90
2023/12/19 10:17:39;;;;;;;1999.90;999.90;;;;;;;;;;5005267;28;20070;-90
2023/12/19 10:20:10;;;;;;;1999.90;999.90;;;;;;;;;;5006454;28;20452;-90
2023/12/19 10:22:38;;;;;;;1999.90;999.90;;;;;;;;;;5005244;28;20050;-89
2023/12/19 10:25:05;;;;;;;1999.90;999.90;;;;;;;;;;5005932;28;20052;-87
2023/12/19 10:27:34;;;;;;;1999.90;999.90;;;;;;;;;;5003459;28;20088;-88
2023/12/19 10:30:16;;;;;;;1999.90;999.90;;;;;;;;;;5002127;28;20049;-88
2023/12/19 10:32:42;;;;;;;1999.90;999.90;;;;;;;;;;5003460;28;20407;-87
2023/12/19 10:35:09;;;;;;;1999.90;999.90;;;;;;;;;;5003140;28;20064;-89
2023/12/19 10:37:36;;;;;;;1999.90;999.90;;;;;;;;;;5002433;28;20069;-88
2023/12/19 10:40:12;;;;;;;1999.90;999.90;;;;;;;;;;5003221;28;20100;-88
2023/12/19 10:42:38;;;;;;;1999.90;999.90;;;;;;;;;;5005696;28;20119;-88
2023/12/19 10:45:06;;;;;;;1999.90;999.90;;;;;;;;;;5003451;28;20061;-88
2023/12/19 10:47:33;;;;;;;1999.90;999.90;;;;;;;;;;4997996;28;20057;-88
2023/12/19 10:49:59;;;;;;;1999.90;999.90;;;;;;;;;;5002221;28;20516;-87
2023/12/19 10:52:27;;;;;;;1999.90;999.90;;;;;;;;;;5006124;28;20068;-88
2023/12/19 10:54:57;;;;;;;1999.90;999.90;;;;;;;;;;5001797;28;20457;-87
2023/12/19 10:57:26;;;;;;;1999.90;999.90;;;;;;;;;;5000312;28;20071;-88
2023/12/19 10:59:55;;;;;;;1999.90;999.90;;;;;;;;;;5001626;28;20050;-88
2023/12/19 11:02:31;;;;;;;1999.90;999.90;;;;;;;;;;4999715;28;20061;-87
2023/12/19 11:05:10;;;;;;;1999.90;999.90;;;;;;;;;;4999924;28;20050;-86
2023/12/19 11:07:36;;;;;;;1999.90;999.90;;;;;;;;;;4999644;28;20089;-87
2023/12/19 11:10:05;;;;;;;1999.90;999.90;;;;;;;;;;5001085;28;20054;-88
2023/12/19 11:12:33;;;;;;;1999.90;999.90;;;;;;;;;;5000841;28;20046;-87
2023/12/19 11:15:00;;;;;;;1999.90;999.90;;;;;;;;;;5002367;28;20419;-88
2023/12/19 11:17:31;;;;;;;1999.90;999.90;;;;;;;;;;5001879;28;20060;-87
2023/12/19 11:20:03;;;;;;;1999.90;999.90;;;;;;;;;;5001400;28;20051;-86
2023/12/19 11:22:33;;;;;;;1999.90;999.90;;;;;;;;;;5001911;28;20045;-87
2023/12/19 11:25:07;;;;;;;1999.90;999.90;;;;;;;;;;5000811;28;20064;-87
2023/12/19 11:27:37;;;;;;;1999.90;999.90;;;;;;;;;;4998365;28;20279;-86
2023/12/19 11:30:05;;;;;;;1999.90;999.90;;;;;;;;;;5000880;28;20057;-86
2023/12/19 11:32:38;;;;;;;1999.90;999.90;;;;;;;;;;5000246;28;20045;-86
2023/12/19 11:35:08;;;;;;;1999.90;999.90;;;;;;;;;;5004549;28;20064;-87
2023/12/19 11:37:35;;;;;;;1999.90;999.90;;;;;;;;;;5000321;28;20053;-86
2023/12/19 11:40:03;;;;;;;1999.90;999.90;;;;;;;;;;5000488;28;20488;-87
2023/12/19 11:42:46;;;;;;;1999.90;999.90;;;;;;;;;;4999049;28;20482;-87
2023/12/19 11:45:36;;;;;;;1999.90;999.90;;;;;;;;;;5002311;28;20053;-87
2023/12/19 11:48:03;;;;;;;1999.90;999.90;;;;;;;;;;5001363;28;20493;-88
2023/12/19 11:50:48;;;;;;;1999.90;999.90;;;;;;;;;;5004881;28;20062;-87
2023/12/19 11:53:22;;;;;;;1999.90;999.90;;;;;;;;;;4997112;28;20504;-88
2023/12/19 11:55:49;;;;;;;1999.90;999.90;;;;;;;;;;5005694;28;20487;-87
2023/12/19 11:58:17;;;;;;;1999.90;999.90;;;;;;;;;;5000470;28;20065;-87
2023/12/19 12:00:44;;;;;;;1999.90;999.90;;;;;;;;;;5001777;28;20495;-87
2023/12/19 12:03:11;;;;;;;1999.90;999.90;;;;;;;;;;5001607;28;20488;-88
2023/12/19 12:05:38;;;;;;;1999.90;999.90;;;;;;;;;;5000493;28;20054;-88
2023/12/19 12:08:05;;;;;;;1999.90;999.90;;;;;;;;;;5001713;28;20054;-88
2023/12/19 12:10:32;;;;;;;1999.90;999.90;;;;;;;;;;5000467;28;20050;-88
2023/12/19 12:13:02;;;;;;;1999.90;999.90;;;;;;;;;;5002225;28;20041;-88
2023/12/19 12:15:30;;;;;;;1999.90;999.90;;;;;;;;;;5007397;28;20053;-89
2023/12/19 12:18:04;;;;;;;1999.90;999.90;;;;;;;;;;5007332;28;20200;-87
2023/12/19 12:20:32;;;;;;;1999.90;999.90;;;;;;;;;;5000766;28;20328;-87
2023/12/19 12:22:58;;;;;;;1999.90;999.90;;;;;;;;;;5001579;28;20054;-88
2023/12/19 12:25:25;;;;;;;1999.90;999.90;;;;;;;;;;4999989;28;20048;-88
2023/12/19 12:27:55;;;;;;;1999.90;999.90;;;;;;;;;;5001208;28;20049;-88
2023/12/19 12:30:22;;;;;;;1999.90;999.90;;;;;;;;;;5002989;28;20460;-88
2023/12/19 12:32:50;;;;;;;1999.90;999.90;;;;;;;;;;4996167;28;20510;-88
2023/12/19 12:35:28;;;;;;;1999.90;999.90;;;;;;;;;;5002221;28;20510;-87
2023/12/19 12:37:59;;;;;;;1999.90;999.90;;;;;;;;;;5003556;28;20464;-89
2023/12/19 12:40:26;;;;;;;1999.90;999.90;;;;;;;;;;5001520;28;20053;-87
2023/12/19 12:42:53;;;;;;;1999.90;999.90;;;;;;;;;;5000763;28;20050;-88
2023/12/19 12:45:19;;;;;;;1999.90;999.90;;;;;;;;;;4999054;28;20058;-88
2023/12/19 12:47:47;;;;;;;1999.90;999.90;;;;;;;;;;4999940;28;20057;-88
2023/12/19 12:50:20;;;;;;;1999.90;999.90;;;;;;;;;;4999476;28;20088;-88
2023/12/19 12:52:47;;;;;;;1999.90;999.90;;;;;;;;;;5001088;28;20057;-87
2023/12/19 12:55:13;;;;;;;1999.90;999.90;;;;;;;;;;5000781;28;20045;-88
2023/12/19 12:57:40;;;;;;;1999.90;999.90;;;;;;;;;;5003543;28;20583;-88
2023/12/19 13:00:08;;;;;;;1999.90;999.90;;;;;;;;;;4997128;28;20092;-88
2023/12/19 13:02:38;;;;;;;1999.90;999.90;;;;;;;;;;4999782;28;20146;-88
2023/12/19 13:05:05;;;;;;;1999.90;999.90;;;;;;;;;;5003991;28;20056;-88
2023/12/19 13:07:44;;;;;;;1999.90;999.90;;;;;;;;;;5001471;28;20057;-88
2023/12/19 13:10:10;;;;;;;1999.90;999.90;;;;;;;;;;4998987;28;20057;-88
2023/12/19 13:12:41;;;;;;;1999.90;999.90;;;;;;;;;;4997254;28;20054;-88
2023/12/19 13:15:09;;;;;;;1999.90;999.90;;;;;;;;;;4999470;28;20160;-88
2023/12/19 13:17:35;;;;;;;1999.90;999.90;;;;;;;;;;5000018;28;20055;-88
2023/12/19 13:20:03;;;;;;;1999.90;999.90;;;;;;;;;;5006210;28;20051;-88
2023/12/19 13:22:29;;;;;;;1999.90;999.90;;;;;;;;;;5004051;28;20062;-88
2023/12/19 13:24:57;;;;;;;1999.90;999.90;;;;;;;;;;5000438;28;20050;-87
2023/12/19 13:27:26;;;;;;;1999.90;999.90;;;;;;;;;;5001338;28;20056;-87
2023/12/19 13:29:53;;;;;;;1999.90;999.90;;;;;;;;;;5003345;28;20054;-87
2023/12/19 13:32:19;;;;;;;1999.90;999.90;;;;;;;;;;4998398;28;20050;-86
2023/12/19 13:34:46;;;;;;;1999.90;999.90;;;;;;;;;;4999302;28;20046;-87
2023/12/19 13:37:12;;;;;;;1999.90;999.90;;;;;;;;;;5005585;28;20050;-87
2023/12/19 13:39:39;;;;;;;1999.90;999.90;;;;;;;;;;5000732;28;20500;-87
2023/12/19 13:42:07;;;;;;;1999.90;999.90;;;;;;;;;;5004065;28;20081;-88
2023/12/19 13:44:34;;;;;;;1999.90;999.90;;;;;;;;;;5004912;28;20041;-87
2023/12/19 13:47:00;;;;;;;1999.90;999.90;;;;;;;;;;5008091;28;20071;-88
2023/12/19 13:49:27;;;;;;;1999.90;999.90;;;;;;;;;;5002243;28;20056;-87
2023/12/19 13:51:53;;;;;;;1999.90;999.90;;;;;;;;;;5002240;28;20132;-86
2023/12/19 13:54:21;;;;;;;1999.90;999.90;;;;;;;;;;5004165;28;20496;-88
2023/12/19 13:56:47;;;;;;;1999.90;999.90;;;;;;;;;;5003739;28;20095;-87
2023/12/19 13:59:15;;;;;;;1999.90;999.90;;;;;;;;;;5006016;28;20061;-86
2023/12/19 14:01:42;;;;;;;1999.90;999.90;;;;;;;;;;5002027;28;20057;-87
2023/12/19 14:04:09;;;;;;;1999.90;999.90;;;;;;;;;;5006897;28;20052;-87
2023/12/19 14:06:35;;;;;;;1999.90;999.90;;;;;;;;;;5005202;28;20104;-87